sensor_id;sensor_type;location;lat;lon;timestamp;P1;durP1;ratioP1;P2;durP2;ratioP2
69970;SDS011;57301;50.328;8.542;2022-08-03T00:00:23;5.55;;;4.93;;
69970;SDS011;57301;50.328;8.542;2022-08-03T00:02:51;6.53;;;4.33;;
69970;SDS011;57301;50.328;8.542;2022-08-03T00:05:18;5.28;;;4.78;;
69970;SDS011;57301;50.328;8.542;2022-08-03T00:07:45;6.45;;;4.60;;
69970;SDS011;57301;50.328;8.542;2022-08-03T00:10:14;5.60;;;4.55;;
69970;SDS011;57301;50.328;8.542;2022-08-03T00:12:41;6.72;;;4.80;;
69970;SDS011;57301;50.328;8.542;2022-08-03T00:15:07;6.03;;;4.97;;
69970;SDS011;57301;50.328;8.542;2022-08-03T00:17:40;5.55;;;4.47;;
69970;SDS011;57301;50.328;8.542;2022-08-03T00:20:19;5.95;;;4.70;;
69970;SDS011;57301;50.328;8.542;2022-08-03T00:22:46;6.85;;;4.70;;
69970;SDS011;57301;50.328;8.542;2022-08-03T00:25:13;5.43;;;4.50;;
69970;SDS011;57301;50.328;8.542;2022-08-03T00:27:40;6.03;;;4.93;;
69970;SDS011;57301;50.328;8.542;2022-08-03T00:30:06;5.30;;;4.60;;
69970;SDS011;57301;50.328;8.542;2022-08-03T00:32:34;5.70;;;4.90;;
69970;SDS011;57301;50.328;8.542;2022-08-03T00:35:01;6.18;;;4.55;;
69970;SDS011;57301;50.328;8.542;2022-08-03T00:37:34;5.50;;;4.63;;
69970;SDS011;57301;50.328;8.542;2022-08-03T00:40:07;5.30;;;4.80;;
69970;SDS011;57301;50.328;8.542;2022-08-03T00:43:12;6.63;;;4.82;;
69970;SDS011;57301;50.328;8.542;2022-08-03T00:45:35;5.40;;;4.85;;
69970;SDS011;57301;50.328;8.542;2022-08-03T00:48:04;5.82;;;4.55;;
69970;SDS011;57301;50.328;8.542;2022-08-03T00:50:51;6.47;;;4.97;;
69970;SDS011;57301;50.328;8.542;2022-08-03T00:53:19;6.40;;;5.40;;
69970;SDS011;57301;50.328;8.542;2022-08-03T00:55:46;5.80;;;4.75;;
69970;SDS011;57301;50.328;8.542;2022-08-03T00:58:12;6.13;;;4.70;;
69970;SDS011;57301;50.328;8.542;2022-08-03T01:00:39;6.63;;;5.22;;
69970;SDS011;57301;50.328;8.542;2022-08-03T01:03:07;7.15;;;5.50;;
69970;SDS011;57301;50.328;8.542;2022-08-03T01:05:48;7.53;;;6.30;;
69970;SDS011;57301;50.328;8.542;2022-08-03T01:08:28;6.45;;;5.05;;
69970;SDS011;57301;50.328;8.542;2022-08-03T01:11:08;7.35;;;5.30;;
69970;SDS011;57301;50.328;8.542;2022-08-03T01:13:45;6.13;;;5.10;;
69970;SDS011;57301;50.328;8.542;2022-08-03T01:16:43;5.80;;;4.95;;
69970;SDS011;57301;50.328;8.542;2022-08-03T01:22:05;5.88;;;5.28;;
69970;SDS011;57301;50.328;8.542;2022-08-03T01:27:42;6.70;;;5.38;;
69970;SDS011;57301;50.328;8.542;2022-08-03T01:30:28;5.68;;;4.70;;
69970;SDS011;57301;50.328;8.542;2022-08-03T01:32:58;5.47;;;4.80;;
69970;SDS011;57301;50.328;8.542;2022-08-03T01:35:34;5.60;;;4.57;;
69970;SDS011;57301;50.328;8.542;2022-08-03T01:38:17;5.93;;;4.82;;
69970;SDS011;57301;50.328;8.542;2022-08-03T01:40:49;6.07;;;5.00;;
69970;SDS011;57301;50.328;8.542;2022-08-03T01:43:20;5.95;;;5.20;;
69970;SDS011;57301;50.328;8.542;2022-08-03T01:46:13;6.90;;;5.20;;
69970;SDS011;57301;50.328;8.542;2022-08-03T01:48:41;6.72;;;4.80;;
69970;SDS011;57301;50.328;8.542;2022-08-03T01:51:09;6.15;;;5.30;;
69970;SDS011;57301;50.328;8.542;2022-08-03T01:53:37;6.10;;;5.05;;
69970;SDS011;57301;50.328;8.542;2022-08-03T01:56:09;7.20;;;4.90;;
69970;SDS011;57301;50.328;8.542;2022-08-03T01:58:37;6.27;;;5.00;;
69970;SDS011;57301;50.328;8.542;2022-08-03T02:01:06;6.60;;;4.78;;
69970;SDS011;57301;50.328;8.542;2022-08-03T02:03:38;6.25;;;4.95;;
69970;SDS011;57301;50.328;8.542;2022-08-03T02:06:26;7.13;;;5.15;;
69970;SDS011;57301;50.328;8.542;2022-08-03T02:09:16;5.95;;;4.93;;
69970;SDS011;57301;50.328;8.542;2022-08-03T02:11:45;5.97;;;5.20;;
69970;SDS011;57301;50.328;8.542;2022-08-03T02:14:12;7.13;;;5.22;;
69970;SDS011;57301;50.328;8.542;2022-08-03T02:16:41;5.68;;;4.90;;
69970;SDS011;57301;50.328;8.542;2022-08-03T02:19:10;7.32;;;4.85;;
69970;SDS011;57301;50.328;8.542;2022-08-03T02:21:38;7.32;;;5.72;;
69970;SDS011;57301;50.328;8.542;2022-08-03T02:24:26;6.77;;;4.60;;
69970;SDS011;57301;50.328;8.542;2022-08-03T02:26:54;6.70;;;5.07;;
69970;SDS011;57301;50.328;8.542;2022-08-03T02:29:23;7.75;;;4.90;;
69970;SDS011;57301;50.328;8.542;2022-08-03T02:32:06;6.15;;;5.03;;
69970;SDS011;57301;50.328;8.542;2022-08-03T02:34:39;6.50;;;5.22;;
69970;SDS011;57301;50.328;8.542;2022-08-03T02:37:09;5.33;;;4.77;;
69970;SDS011;57301;50.328;8.542;2022-08-03T02:39:36;9.15;;;5.18;;
69970;SDS011;57301;50.328;8.542;2022-08-03T02:42:07;5.80;;;5.03;;
69970;SDS011;57301;50.328;8.542;2022-08-03T02:44:38;5.32;;;4.70;;
69970;SDS011;57301;50.328;8.542;2022-08-03T02:47:06;5.72;;;5.00;;
69970;SDS011;57301;50.328;8.542;2022-08-03T02:49:36;8.27;;;4.97;;
69970;SDS011;57301;50.328;8.542;2022-08-03T02:52:17;7.25;;;5.10;;
69970;SDS011;57301;50.328;8.542;2022-08-03T02:54:49;5.85;;;5.20;;
69970;SDS011;57301;50.328;8.542;2022-08-03T02:57:19;5.53;;;4.75;;
69970;SDS011;57301;50.328;8.542;2022-08-03T02:59:48;6.03;;;4.65;;
69970;SDS011;57301;50.328;8.542;2022-08-03T03:02:15;6.00;;;5.13;;
69970;SDS011;57301;50.328;8.542;2022-08-03T03:04:45;6.20;;;5.00;;
69970;SDS011;57301;50.328;8.542;2022-08-03T03:07:35;6.82;;;5.20;;
69970;SDS011;57301;50.328;8.542;2022-08-03T03:10:18;6.15;;;5.18;;
69970;SDS011;57301;50.328;8.542;2022-08-03T03:12:53;5.80;;;5.03;;
69970;SDS011;57301;50.328;8.542;2022-08-03T03:15:22;6.93;;;5.40;;
69970;SDS011;57301;50.328;8.542;2022-08-03T03:17:50;6.88;;;5.00;;
69970;SDS011;57301;50.328;8.542;2022-08-03T03:20:19;6.20;;;5.40;;
69970;SDS011;57301;50.328;8.542;2022-08-03T03:22:56;6.88;;;5.47;;
69970;SDS011;57301;50.328;8.542;2022-08-03T03:25:24;7.20;;;5.80;;
69970;SDS011;57301;50.328;8.542;2022-08-03T03:27:51;7.17;;;5.13;;
69970;SDS011;57301;50.328;8.542;2022-08-03T03:30:18;7.40;;;5.50;;
69970;SDS011;57301;50.328;8.542;2022-08-03T03:32:44;5.93;;;5.32;;
69970;SDS011;57301;50.328;8.542;2022-08-03T03:35:11;7.90;;;5.13;;
69970;SDS011;57301;50.328;8.542;2022-08-03T03:37:39;6.43;;;4.97;;
69970;SDS011;57301;50.328;8.542;2022-08-03T03:40:06;7.07;;;5.80;;
69970;SDS011;57301;50.328;8.542;2022-08-03T03:42:34;7.40;;;5.50;;
69970;SDS011;57301;50.328;8.542;2022-08-03T03:45:04;6.05;;;5.18;;
69970;SDS011;57301;50.328;8.542;2022-08-03T03:47:35;6.47;;;5.60;;
69970;SDS011;57301;50.328;8.542;2022-08-03T03:50:03;7.15;;;5.18;;
69970;SDS011;57301;50.328;8.542;2022-08-03T03:52:31;6.50;;;5.10;;
69970;SDS011;57301;50.328;8.542;2022-08-03T03:54:59;7.10;;;5.03;;
69970;SDS011;57301;50.328;8.542;2022-08-03T03:57:27;7.15;;;5.60;;
69970;SDS011;57301;50.328;8.542;2022-08-03T03:59:54;5.80;;;5.05;;
69970;SDS011;57301;50.328;8.542;2022-08-03T04:02:20;6.47;;;5.07;;
69970;SDS011;57301;50.328;8.542;2022-08-03T04:04:47;6.87;;;4.97;;
69970;SDS011;57301;50.328;8.542;2022-08-03T04:07:37;5.53;;;4.85;;
69970;SDS011;57301;50.328;8.542;2022-08-03T04:10:35;8.10;;;4.93;;
69970;SDS011;57301;50.328;8.542;2022-08-03T04:13:30;6.32;;;5.40;;
69970;SDS011;57301;50.328;8.542;2022-08-03T04:15:58;6.47;;;4.90;;
69970;SDS011;57301;50.328;8.542;2022-08-03T04:18:26;7.13;;;4.97;;
69970;SDS011;57301;50.328;8.542;2022-08-03T04:20:57;5.60;;;4.50;;
69970;SDS011;57301;50.328;8.542;2022-08-03T04:23:26;6.55;;;5.45;;
69970;SDS011;57301;50.328;8.542;2022-08-03T04:25:56;6.47;;;5.25;;
69970;SDS011;57301;50.328;8.542;2022-08-03T04:28:24;6.50;;;5.07;;
69970;SDS011;57301;50.328;8.542;2022-08-03T04:30:57;5.70;;;5.00;;
69970;SDS011;57301;50.328;8.542;2022-08-03T04:33:26;7.43;;;5.10;;
69970;SDS011;57301;50.328;8.542;2022-08-03T04:35:57;7.50;;;5.05;;
69970;SDS011;57301;50.328;8.542;2022-08-03T04:38:29;6.72;;;5.40;;
69970;SDS011;57301;50.328;8.542;2022-08-03T04:40:58;7.22;;;5.32;;
69970;SDS011;57301;50.328;8.542;2022-08-03T04:43:26;7.37;;;4.83;;
69970;SDS011;57301;50.328;8.542;2022-08-03T04:45:54;6.80;;;5.10;;
69970;SDS011;57301;50.328;8.542;2022-08-03T04:48:22;6.05;;;5.45;;
69970;SDS011;57301;50.328;8.542;2022-08-03T04:50:49;6.15;;;5.30;;
69970;SDS011;57301;50.328;8.542;2022-08-03T04:53:16;5.95;;;5.35;;
69970;SDS011;57301;50.328;8.542;2022-08-03T04:55:44;6.73;;;4.93;;
69970;SDS011;57301;50.328;8.542;2022-08-03T04:58:11;6.85;;;5.22;;
69970;SDS011;57301;50.328;8.542;2022-08-03T05:00:38;7.18;;;4.82;;
69970;SDS011;57301;50.328;8.542;2022-08-03T05:03:04;6.32;;;5.10;;
69970;SDS011;57301;50.328;8.542;2022-08-03T05:05:49;6.25;;;4.78;;
69970;SDS011;57301;50.328;8.542;2022-08-03T05:08:16;7.57;;;4.80;;
69970;SDS011;57301;50.328;8.542;2022-08-03T05:10:53;6.18;;;4.78;;
69970;SDS011;57301;50.328;8.542;2022-08-03T05:13:22;5.78;;;4.90;;
69970;SDS011;57301;50.328;8.542;2022-08-03T05:15:48;32.20;;;18.67;;
69970;SDS011;57301;50.328;8.542;2022-08-03T05:18:15;36.00;;;20.55;;
69970;SDS011;57301;50.328;8.542;2022-08-03T05:20:42;11.40;;;8.40;;
69970;SDS011;57301;50.328;8.542;2022-08-03T05:23:11;6.45;;;5.05;;
69970;SDS011;57301;50.328;8.542;2022-08-03T05:25:37;6.60;;;5.28;;
69970;SDS011;57301;50.328;8.542;2022-08-03T05:28:04;5.78;;;4.88;;
69970;SDS011;57301;50.328;8.542;2022-08-03T05:30:31;8.38;;;4.97;;
69970;SDS011;57301;50.328;8.542;2022-08-03T05:33:00;5.23;;;4.20;;
69970;SDS011;57301;50.328;8.542;2022-08-03T05:35:27;6.22;;;4.43;;
69970;SDS011;57301;50.328;8.542;2022-08-03T05:38:14;5.13;;;3.78;;
69970;SDS011;57301;50.328;8.542;2022-08-03T05:40:54;4.68;;;3.50;;
69970;SDS011;57301;50.328;8.542;2022-08-03T05:43:22;3.50;;;3.10;;
69970;SDS011;57301;50.328;8.542;2022-08-03T05:45:49;4.63;;;3.40;;
69970;SDS011;57301;50.328;8.542;2022-08-03T05:48:36;5.25;;;3.17;;
69970;SDS011;57301;50.328;8.542;2022-08-03T05:51:03;6.47;;;3.40;;
69970;SDS011;57301;50.328;8.542;2022-08-03T05:53:36;4.20;;;2.85;;
69970;SDS011;57301;50.328;8.542;2022-08-03T05:56:03;3.85;;;2.65;;
69970;SDS011;57301;50.328;8.542;2022-08-03T05:58:46;3.30;;;2.40;;
69970;SDS011;57301;50.328;8.542;2022-08-03T06:01:13;4.07;;;2.72;;
69970;SDS011;57301;50.328;8.542;2022-08-03T06:03:41;4.75;;;2.70;;
69970;SDS011;57301;50.328;8.542;2022-08-03T06:06:08;4.10;;;2.72;;
69970;SDS011;57301;50.328;8.542;2022-08-03T06:08:34;4.22;;;2.50;;
69970;SDS011;57301;50.328;8.542;2022-08-03T06:11:01;3.70;;;2.30;;
69970;SDS011;57301;50.328;8.542;2022-08-03T06:13:28;3.10;;;2.33;;
69970;SDS011;57301;50.328;8.542;2022-08-03T06:15:54;4.68;;;2.47;;
69970;SDS011;57301;50.328;8.542;2022-08-03T06:18:21;3.95;;;2.10;;
69970;SDS011;57301;50.328;8.542;2022-08-03T06:20:50;4.32;;;2.30;;
69970;SDS011;57301;50.328;8.542;2022-08-03T06:23:17;4.47;;;2.30;;
69970;SDS011;57301;50.328;8.542;2022-08-03T06:25:45;3.08;;;2.20;;
69970;SDS011;57301;50.328;8.542;2022-08-03T06:28:12;4.05;;;2.30;;
69970;SDS011;57301;50.328;8.542;2022-08-03T06:30:59;5.43;;;3.72;;
69970;SDS011;57301;50.328;8.542;2022-08-03T06:33:27;4.35;;;2.40;;
69970;SDS011;57301;50.328;8.542;2022-08-03T06:36:13;4.87;;;4.17;;
69970;SDS011;57301;50.328;8.542;2022-08-03T06:38:40;4.55;;;2.78;;
69970;SDS011;57301;50.328;8.542;2022-08-03T06:41:07;3.30;;;2.03;;
69970;SDS011;57301;50.328;8.542;2022-08-03T06:43:33;6.05;;;4.82;;
69970;SDS011;57301;50.328;8.542;2022-08-03T06:46:22;12.20;;;9.15;;
69970;SDS011;57301;50.328;8.542;2022-08-03T06:48:49;10.23;;;8.37;;
69970;SDS011;57301;50.328;8.542;2022-08-03T06:51:15;4.00;;;2.15;;
69970;SDS011;57301;50.328;8.542;2022-08-03T06:53:42;3.30;;;2.13;;
69970;SDS011;57301;50.328;8.542;2022-08-03T06:56:08;3.80;;;2.22;;
69970;SDS011;57301;50.328;8.542;2022-08-03T06:58:36;3.13;;;2.17;;
69970;SDS011;57301;50.328;8.542;2022-08-03T07:01:02;3.63;;;2.20;;
69970;SDS011;57301;50.328;8.542;2022-08-03T07:03:29;4.78;;;2.00;;
69970;SDS011;57301;50.328;8.542;2022-08-03T07:05:55;5.75;;;2.55;;
69970;SDS011;57301;50.328;8.542;2022-08-03T07:08:22;3.75;;;2.40;;
69970;SDS011;57301;50.328;8.542;2022-08-03T07:10:59;4.43;;;2.70;;
69970;SDS011;57301;50.328;8.542;2022-08-03T07:13:26;8.77;;;5.70;;
69970;SDS011;57301;50.328;8.542;2022-08-03T07:15:52;6.03;;;3.15;;
69970;SDS011;57301;50.328;8.542;2022-08-03T07:18:21;3.75;;;2.22;;
69970;SDS011;57301;50.328;8.542;2022-08-03T07:20:55;3.10;;;2.00;;
69970;SDS011;57301;50.328;8.542;2022-08-03T07:23:22;7.85;;;6.32;;
69970;SDS011;57301;50.328;8.542;2022-08-03T07:25:49;3.53;;;2.20;;
69970;SDS011;57301;50.328;8.542;2022-08-03T07:28:16;4.88;;;1.90;;
69970;SDS011;57301;50.328;8.542;2022-08-03T07:30:42;6.28;;;2.10;;
69970;SDS011;57301;50.328;8.542;2022-08-03T07:33:09;3.97;;;2.00;;
69970;SDS011;57301;50.328;8.542;2022-08-03T07:35:35;4.18;;;1.80;;
69970;SDS011;57301;50.328;8.542;2022-08-03T07:38:02;4.00;;;1.70;;
69970;SDS011;57301;50.328;8.542;2022-08-03T07:40:28;3.47;;;1.80;;
69970;SDS011;57301;50.328;8.542;2022-08-03T07:42:56;4.47;;;1.90;;
69970;SDS011;57301;50.328;8.542;2022-08-03T07:45:23;3.53;;;1.70;;
69970;SDS011;57301;50.328;8.542;2022-08-03T07:47:51;4.82;;;2.33;;
69970;SDS011;57301;50.328;8.542;2022-08-03T07:50:19;4.37;;;2.73;;
69970;SDS011;57301;50.328;8.542;2022-08-03T07:52:48;5.78;;;1.60;;
69970;SDS011;57301;50.328;8.542;2022-08-03T07:55:16;4.15;;;1.90;;
69970;SDS011;57301;50.328;8.542;2022-08-03T07:57:57;4.88;;;1.80;;
69970;SDS011;57301;50.328;8.542;2022-08-03T08:00:25;4.53;;;2.33;;
69970;SDS011;57301;50.328;8.542;2022-08-03T08:02:51;3.07;;;1.57;;
69970;SDS011;57301;50.328;8.542;2022-08-03T08:05:18;3.17;;;1.65;;
69970;SDS011;57301;50.328;8.542;2022-08-03T08:07:44;2.65;;;1.55;;
69970;SDS011;57301;50.328;8.542;2022-08-03T08:10:16;3.40;;;1.70;;
69970;SDS011;57301;50.328;8.542;2022-08-03T08:12:43;4.80;;;1.70;;
69970;SDS011;57301;50.328;8.542;2022-08-03T08:15:09;3.43;;;1.60;;
69970;SDS011;57301;50.328;8.542;2022-08-03T08:17:47;5.22;;;1.60;;
69970;SDS011;57301;50.328;8.542;2022-08-03T08:20:21;3.25;;;1.70;;
69970;SDS011;57301;50.328;8.542;2022-08-03T08:22:56;5.93;;;1.88;;
69970;SDS011;57301;50.328;8.542;2022-08-03T08:25:27;6.20;;;1.65;;
69970;SDS011;57301;50.328;8.542;2022-08-03T08:27:54;7.03;;;2.10;;
69970;SDS011;57301;50.328;8.542;2022-08-03T08:30:41;3.17;;;1.83;;
69970;SDS011;57301;50.328;8.542;2022-08-03T08:33:07;7.40;;;2.10;;
69970;SDS011;57301;50.328;8.542;2022-08-03T08:35:48;4.40;;;1.90;;
69970;SDS011;57301;50.328;8.542;2022-08-03T08:38:15;4.35;;;2.05;;
69970;SDS011;57301;50.328;8.542;2022-08-03T08:40:42;3.03;;;1.90;;
69970;SDS011;57301;50.328;8.542;2022-08-03T08:43:08;3.72;;;2.00;;
69970;SDS011;57301;50.328;8.542;2022-08-03T08:45:35;3.30;;;1.80;;
69970;SDS011;57301;50.328;8.542;2022-08-03T08:48:02;3.90;;;1.90;;
69970;SDS011;57301;50.328;8.542;2022-08-03T08:50:33;5.20;;;2.10;;
69970;SDS011;57301;50.328;8.542;2022-08-03T08:53:02;4.80;;;2.10;;
69970;SDS011;57301;50.328;8.542;2022-08-03T08:55:35;5.25;;;1.98;;
69970;SDS011;57301;50.328;8.542;2022-08-03T08:58:22;4.30;;;1.95;;
69970;SDS011;57301;50.328;8.542;2022-08-03T09:00:49;2.63;;;1.70;;
69970;SDS011;57301;50.328;8.542;2022-08-03T09:03:16;3.25;;;2.10;;
69970;SDS011;57301;50.328;8.542;2022-08-03T09:05:55;3.07;;;1.80;;
69970;SDS011;57301;50.328;8.542;2022-08-03T09:08:23;5.32;;;1.83;;
69970;SDS011;57301;50.328;8.542;2022-08-03T09:10:49;2.60;;;1.98;;
69970;SDS011;57301;50.328;8.542;2022-08-03T09:13:16;4.55;;;1.90;;
69970;SDS011;57301;50.328;8.542;2022-08-03T09:15:42;3.38;;;2.05;;
69970;SDS011;57301;50.328;8.542;2022-08-03T09:18:29;3.97;;;1.90;;
69970;SDS011;57301;50.328;8.542;2022-08-03T09:24:01;3.88;;;2.05;;
69970;SDS011;57301;50.328;8.542;2022-08-03T09:26:34;4.60;;;2.63;;
69970;SDS011;57301;50.328;8.542;2022-08-03T09:31:41;4.23;;;2.20;;
69970;SDS011;57301;50.328;8.542;2022-08-03T09:34:11;4.35;;;2.03;;
69970;SDS011;57301;50.328;8.542;2022-08-03T09:36:40;4.13;;;1.90;;
69970;SDS011;57301;50.328;8.542;2022-08-03T09:39:18;6.03;;;2.13;;
69970;SDS011;57301;50.328;8.542;2022-08-03T09:42:08;4.78;;;2.10;;
69970;SDS011;57301;50.328;8.542;2022-08-03T09:44:49;4.43;;;2.00;;
69970;SDS011;57301;50.328;8.542;2022-08-03T09:47:27;2.80;;;2.00;;
69970;SDS011;57301;50.328;8.542;2022-08-03T09:49:56;3.67;;;2.00;;
69970;SDS011;57301;50.328;8.542;2022-08-03T09:52:45;4.28;;;2.15;;
69970;SDS011;57301;50.328;8.542;2022-08-03T09:55:18;3.70;;;2.00;;
69970;SDS011;57301;50.328;8.542;2022-08-03T09:58:10;3.07;;;2.03;;
69970;SDS011;57301;50.328;8.542;2022-08-03T10:03:19;5.07;;;2.20;;
69970;SDS011;57301;50.328;8.542;2022-08-03T10:05:47;5.15;;;2.20;;
69970;SDS011;57301;50.328;8.542;2022-08-03T10:08:14;3.10;;;1.90;;
69970;SDS011;57301;50.328;8.542;2022-08-03T10:10:42;3.27;;;2.30;;
69970;SDS011;57301;50.328;8.542;2022-08-03T10:13:13;4.00;;;2.28;;
69970;SDS011;57301;50.328;8.542;2022-08-03T10:15:41;3.47;;;2.10;;
69970;SDS011;57301;50.328;8.542;2022-08-03T10:18:27;5.78;;;2.33;;
69970;SDS011;57301;50.328;8.542;2022-08-03T10:20:54;3.97;;;2.20;;
69970;SDS011;57301;50.328;8.542;2022-08-03T10:23:28;3.83;;;2.03;;
69970;SDS011;57301;50.328;8.542;2022-08-03T10:26:00;4.75;;;2.22;;
69970;SDS011;57301;50.328;8.542;2022-08-03T10:28:35;3.10;;;2.10;;
69970;SDS011;57301;50.328;8.542;2022-08-03T10:31:10;4.35;;;2.00;;
69970;SDS011;57301;50.328;8.542;2022-08-03T10:33:41;4.15;;;2.30;;
69970;SDS011;57301;50.328;8.542;2022-08-03T10:36:18;4.60;;;2.13;;
69970;SDS011;57301;50.328;8.542;2022-08-03T10:38:49;4.35;;;2.20;;
69970;SDS011;57301;50.328;8.542;2022-08-03T10:41:20;6.10;;;2.30;;
69970;SDS011;57301;50.328;8.542;2022-08-03T10:46:37;4.55;;;1.90;;
69970;SDS011;57301;50.328;8.542;2022-08-03T10:49:14;3.10;;;2.00;;
69970;SDS011;57301;50.328;8.542;2022-08-03T10:51:59;3.13;;;2.10;;
69970;SDS011;57301;50.328;8.542;2022-08-03T11:00:19;2.78;;;2.00;;
69970;SDS011;57301;50.328;8.542;2022-08-03T11:05:51;2.85;;;1.95;;
69970;SDS011;57301;50.328;8.542;2022-08-03T11:08:28;4.97;;;2.15;;
69970;SDS011;57301;50.328;8.542;2022-08-03T11:10:57;3.40;;;1.90;;
69970;SDS011;57301;50.328;8.542;2022-08-03T11:13:56;3.10;;;2.00;;
69970;SDS011;57301;50.328;8.542;2022-08-03T11:16:29;9.07;;;2.23;;
69970;SDS011;57301;50.328;8.542;2022-08-03T11:19:01;6.60;;;2.10;;
69970;SDS011;57301;50.328;8.542;2022-08-03T11:27:17;4.82;;;2.17;;
69970;SDS011;57301;50.328;8.542;2022-08-03T11:35:30;5.45;;;2.20;;
69970;SDS011;57301;50.328;8.542;2022-08-03T11:38:06;3.10;;;2.00;;
69970;SDS011;57301;50.328;8.542;2022-08-03T11:46:06;3.55;;;2.10;;
69970;SDS011;57301;50.328;8.542;2022-08-03T11:48:57;3.40;;;2.30;;
69970;SDS011;57301;50.328;8.542;2022-08-03T11:51:36;3.58;;;1.90;;
69970;SDS011;57301;50.328;8.542;2022-08-03T11:54:05;3.53;;;2.20;;
69970;SDS011;57301;50.328;8.542;2022-08-03T11:56:45;4.30;;;2.20;;
69970;SDS011;57301;50.328;8.542;2022-08-03T11:59:12;3.13;;;2.00;;
69970;SDS011;57301;50.328;8.542;2022-08-03T12:01:46;4.32;;;2.05;;
69970;SDS011;57301;50.328;8.542;2022-08-03T12:04:12;3.17;;;2.00;;
69970;SDS011;57301;50.328;8.542;2022-08-03T12:06:41;3.38;;;2.15;;
69970;SDS011;57301;50.328;8.542;2022-08-03T12:09:24;4.20;;;1.90;;
69970;SDS011;57301;50.328;8.542;2022-08-03T12:11:50;4.72;;;2.78;;
69970;SDS011;57301;50.328;8.542;2022-08-03T12:14:26;4.25;;;2.75;;
69970;SDS011;57301;50.328;8.542;2022-08-03T12:17:14;4.57;;;2.40;;
69970;SDS011;57301;50.328;8.542;2022-08-03T12:19:41;4.28;;;2.63;;
69970;SDS011;57301;50.328;8.542;2022-08-03T12:22:09;9.70;;;8.37;;
69970;SDS011;57301;50.328;8.542;2022-08-03T12:24:41;7.53;;;3.00;;
69970;SDS011;57301;50.328;8.542;2022-08-03T12:27:21;5.85;;;2.50;;
69970;SDS011;57301;50.328;8.542;2022-08-03T12:29:54;4.68;;;2.33;;
69970;SDS011;57301;50.328;8.542;2022-08-03T12:32:24;3.40;;;2.45;;
69970;SDS011;57301;50.328;8.542;2022-08-03T12:34:51;3.77;;;2.53;;
69970;SDS011;57301;50.328;8.542;2022-08-03T12:37:19;3.65;;;2.38;;
69970;SDS011;57301;50.328;8.542;2022-08-03T12:39:57;6.10;;;3.10;;
69970;SDS011;57301;50.328;8.542;2022-08-03T12:42:35;3.63;;;2.70;;
69970;SDS011;57301;50.328;8.542;2022-08-03T12:45:19;5.45;;;2.80;;
69970;SDS011;57301;50.328;8.542;2022-08-03T12:47:57;3.43;;;2.30;;
69970;SDS011;57301;50.328;8.542;2022-08-03T12:50:26;5.07;;;2.20;;
69970;SDS011;57301;50.328;8.542;2022-08-03T12:52:58;3.13;;;2.20;;
69970;SDS011;57301;50.328;8.542;2022-08-03T12:55:25;4.93;;;2.17;;
69970;SDS011;57301;50.328;8.542;2022-08-03T12:58:31;3.22;;;2.05;;
69970;SDS011;57301;50.328;8.542;2022-08-03T13:01:01;3.57;;;2.40;;
69970;SDS011;57301;50.328;8.542;2022-08-03T13:03:53;4.20;;;2.05;;
69970;SDS011;57301;50.328;8.542;2022-08-03T13:06:23;4.03;;;2.20;;
69970;SDS011;57301;50.328;8.542;2022-08-03T13:09:12;3.95;;;2.10;;
69970;SDS011;57301;50.328;8.542;2022-08-03T13:11:37;5.57;;;2.10;;
69970;SDS011;57301;50.328;8.542;2022-08-03T13:14:24;4.67;;;2.20;;
69970;SDS011;57301;50.328;8.542;2022-08-03T13:16:50;3.10;;;1.95;;
69970;SDS011;57301;50.328;8.542;2022-08-03T13:19:17;3.90;;;2.30;;
69970;SDS011;57301;50.328;8.542;2022-08-03T13:21:43;4.85;;;2.05;;
69970;SDS011;57301;50.328;8.542;2022-08-03T13:24:28;3.85;;;2.10;;
69970;SDS011;57301;50.328;8.542;2022-08-03T13:26:56;4.53;;;1.83;;
69970;SDS011;57301;50.328;8.542;2022-08-03T13:29:23;3.38;;;1.95;;
69970;SDS011;57301;50.328;8.542;2022-08-03T13:31:50;3.95;;;2.00;;
69970;SDS011;57301;50.328;8.542;2022-08-03T13:34:16;4.55;;;1.90;;
69970;SDS011;57301;50.328;8.542;2022-08-03T13:36:49;4.70;;;1.92;;
69970;SDS011;57301;50.328;8.542;2022-08-03T13:39:36;2.40;;;1.50;;
69970;SDS011;57301;50.328;8.542;2022-08-03T13:42:23;3.38;;;1.95;;
69970;SDS011;57301;50.328;8.542;2022-08-03T13:44:50;4.25;;;1.95;;
69970;SDS011;57301;50.328;8.542;2022-08-03T13:47:17;4.57;;;1.85;;
69970;SDS011;57301;50.328;8.542;2022-08-03T13:49:44;3.45;;;1.63;;
69970;SDS011;57301;50.328;8.542;2022-08-03T13:52:25;3.27;;;1.60;;
69970;SDS011;57301;50.328;8.542;2022-08-03T13:54:52;8.48;;;1.70;;
69970;SDS011;57301;50.328;8.542;2022-08-03T13:57:19;5.88;;;2.00;;
69970;SDS011;57301;50.328;8.542;2022-08-03T14:00:05;2.60;;;1.40;;
69970;SDS011;57301;50.328;8.542;2022-08-03T14:02:33;3.30;;;1.70;;
69970;SDS011;57301;50.328;8.542;2022-08-03T14:04:59;3.57;;;1.67;;
69970;SDS011;57301;50.328;8.542;2022-08-03T14:07:26;3.58;;;1.70;;
69970;SDS011;57301;50.328;8.542;2022-08-03T14:09:52;4.82;;;1.80;;
69970;SDS011;57301;50.328;8.542;2022-08-03T14:12:18;3.55;;;1.40;;
69970;SDS011;57301;50.328;8.542;2022-08-03T14:14:45;2.40;;;1.60;;
69970;SDS011;57301;50.328;8.542;2022-08-03T14:17:11;4.17;;;1.70;;
69970;SDS011;57301;50.328;8.542;2022-08-03T14:19:41;3.03;;;1.40;;
69970;SDS011;57301;50.328;8.542;2022-08-03T14:22:19;3.53;;;1.73;;
69970;SDS011;57301;50.328;8.542;2022-08-03T14:24:46;3.67;;;1.50;;
69970;SDS011;57301;50.328;8.542;2022-08-03T14:27:14;7.57;;;1.80;;
69970;SDS011;57301;50.328;8.542;2022-08-03T14:29:41;4.43;;;3.60;;
69970;SDS011;57301;50.328;8.542;2022-08-03T14:32:08;4.20;;;2.35;;
69970;SDS011;57301;50.328;8.542;2022-08-03T14:34:38;4.40;;;1.77;;
69970;SDS011;57301;50.328;8.542;2022-08-03T14:37:05;4.00;;;1.40;;
69970;SDS011;57301;50.328;8.542;2022-08-03T14:39:32;2.47;;;1.50;;
69970;SDS011;57301;50.328;8.542;2022-08-03T14:42:19;3.03;;;1.50;;
69970;SDS011;57301;50.328;8.542;2022-08-03T14:44:45;3.95;;;1.63;;
69970;SDS011;57301;50.328;8.542;2022-08-03T14:47:13;3.75;;;1.70;;
69970;SDS011;57301;50.328;8.542;2022-08-03T14:49:40;3.75;;;1.40;;
69970;SDS011;57301;50.328;8.542;2022-08-03T14:52:27;3.10;;;1.50;;
69970;SDS011;57301;50.328;8.542;2022-08-03T14:54:53;2.40;;;1.30;;
69970;SDS011;57301;50.328;8.542;2022-08-03T14:57:19;6.18;;;1.50;;
69970;SDS011;57301;50.328;8.542;2022-08-03T14:59:46;2.97;;;1.50;;
69970;SDS011;57301;50.328;8.542;2022-08-03T15:02:22;4.35;;;1.50;;
69970;SDS011;57301;50.328;8.542;2022-08-03T15:04:49;3.60;;;1.40;;
69970;SDS011;57301;50.328;8.542;2022-08-03T15:07:16;2.70;;;1.30;;
69970;SDS011;57301;50.328;8.542;2022-08-03T15:09:43;3.58;;;1.40;;
69970;SDS011;57301;50.328;8.542;2022-08-03T15:12:10;2.20;;;1.40;;
69970;SDS011;57301;50.328;8.542;2022-08-03T15:14:37;3.28;;;1.40;;
69970;SDS011;57301;50.328;8.542;2022-08-03T15:17:04;2.53;;;1.45;;
69970;SDS011;57301;50.328;8.542;2022-08-03T15:19:31;2.77;;;1.40;;
69970;SDS011;57301;50.328;8.542;2022-08-03T15:22:18;2.53;;;1.23;;
69970;SDS011;57301;50.328;8.542;2022-08-03T15:24:45;2.97;;;1.42;;
69970;SDS011;57301;50.328;8.542;2022-08-03T15:27:12;4.05;;;1.40;;
69970;SDS011;57301;50.328;8.542;2022-08-03T15:29:39;2.90;;;1.20;;
69970;SDS011;57301;50.328;8.542;2022-08-03T15:32:25;11.40;;;9.07;;
69970;SDS011;57301;50.328;8.542;2022-08-03T15:34:52;4.20;;;1.52;;
69970;SDS011;57301;50.328;8.542;2022-08-03T15:37:20;3.55;;;1.35;;
69970;SDS011;57301;50.328;8.542;2022-08-03T15:39:47;3.13;;;1.30;;
69970;SDS011;57301;50.328;8.542;2022-08-03T15:42:29;3.92;;;1.35;;
69970;SDS011;57301;50.328;8.542;2022-08-03T15:44:57;2.60;;;1.20;;
69970;SDS011;57301;50.328;8.542;2022-08-03T15:47:24;3.70;;;1.30;;
69970;SDS011;57301;50.328;8.542;2022-08-03T15:49:51;3.38;;;1.30;;
69970;SDS011;57301;50.328;8.542;2022-08-03T15:52:18;2.33;;;1.30;;
69970;SDS011;57301;50.328;8.542;2022-08-03T15:54:44;2.60;;;1.40;;
69970;SDS011;57301;50.328;8.542;2022-08-03T15:57:11;2.80;;;1.53;;